Winter Springs, FL

6:37 AM EST on February 13, 2016 (GMT -0500)
Oak Forest | | Change Station
CLOSE
Current Station
Personal Weather Station
Location: Winter Springs, FL
Elevation: 62 ft
Nearby Weather Stations

Elev 62 ft 28.68 °N, 81.27 °W | Updated 48 days ago

Clear
Clear
58 °F
Feels Like 58 °F
N
10
Wind Variable Wind from NNW
Gusts 15 mph

Today
High -- | Low -- °F
--% Chance of Precip.
Yesterday
High -- | Low -- °F
Precip. -- in
Pressure 30.17 in
Visibility 10.0 miles
Clouds Clear
Dew Point 52 °F
Humidity 82%
Rainfall in
Snow Depth Not available.
7:05 AM 6:13 PM
Waxing Crescent, 30% visible
METAR KSFB 131053Z AUTO 29006KT 10SM CLR 12/12 A3017 RMK AO2 SLP217 T01220117
Pressure 30.17 in
Visibility 10.0 miles
Clouds Clear
Dew Point 52 °F
Humidity 82%
Rainfall in
Snow Depth Not available.
7:05 AM 6:13 PM
Waxing Crescent, 30% visible
METAR KSFB 131053Z AUTO 29006KT 10SM CLR 12/12 A3017 RMK AO2 SLP217 T01220117

10-Day Weather Forecast

Almanac

Astronomy

Feb. 13, 2016 Rise Set
Actual Time
Civil Twilight
Nautical Twilight
Astronomical Twilight
Moon
Length of Visible Light
Length of Day
Tomorrow will be .
, % of the Moon is Illuminated

Today's Extremes

State Highs State Lows

Community

WunderPhotos

Upload Photos

1,892,541 photos uploaded!

WunderBlog® & News

Nearby

Air Quality

  Air Quality AQ Index Pollutant
Not available.

Snow Depth

Station Depth Elevation

Earthquake Activity

City Distance Mag. Time & Date
Minimum magnitude displayed is 2.5.

Coastal Water Temperatures

Place Temperature

Stations

Nearby Weather Stations

Station Location Temp. Windchill Dew Point Humidity Wind Precip. Elev Updated Type
                   

Watches & Warnings

There are currently no watches in effect.